createdAt,value
2023-05-17T00:00:01.472Z,743.93
2023-05-17T00:02:30.182Z,741.75
2023-05-17T00:04:58.009Z,684.72
2023-05-17T00:07:25.567Z,701.97
2023-05-17T00:09:53.076Z,709.22
2023-05-17T00:12:20.946Z,700.85
2023-05-17T00:14:48.593Z,706.17
2023-05-17T00:17:16.816Z,707.53
2023-05-17T00:19:44.997Z,716.55
2023-05-17T00:22:12.678Z,719.22
2023-05-17T00:24:41.111Z,709.55
2023-05-17T00:27:09.167Z,715.78
2023-05-17T00:29:36.741Z,715.97
2023-05-17T00:32:04.668Z,708.95
2023-05-17T00:34:32.796Z,712.40
2023-05-17T00:37:00.482Z,708.28
2023-05-17T00:39:28.353Z,708.57
2023-05-17T00:41:56.389Z,707.20
2023-05-17T00:44:23.958Z,695.30
2023-05-17T00:46:52.377Z,688.47
2023-05-17T00:49:20.116Z,686.25
2023-05-17T00:51:48.571Z,690.70
2023-05-17T00:54:16.683Z,693.08
2023-05-17T00:56:44.910Z,694.50
2023-05-17T00:59:14.064Z,696.42
2023-05-17T01:01:43.094Z,700.05
2023-05-17T01:04:11.711Z,702.45
2023-05-17T01:06:41.139Z,704.00
2023-05-17T01:09:09.370Z,697.53
2023-05-17T01:11:55.319Z,694.13
2023-05-17T01:14:56.990Z,698.65
2023-05-17T01:17:35.794Z,697.97
2023-05-17T01:20:26.993Z,694.20
2023-05-17T01:22:57.767Z,701.08
2023-05-17T01:26:04.040Z,701.10
2023-05-17T01:28:32.086Z,709.53
2023-05-17T01:31:04.679Z,715.67
2023-05-17T01:33:33.050Z,709.38
2023-05-17T01:36:01.999Z,716.03
2023-05-17T01:38:29.733Z,722.85
2023-05-17T01:41:05.003Z,722.70
2023-05-17T01:43:41.705Z,725.83
2023-05-17T01:46:41.644Z,722.13
2023-05-17T01:49:24.071Z,724.08
2023-05-17T01:52:09.086Z,726.00
2023-05-17T01:55:05.751Z,725.70
2023-05-17T01:57:37.117Z,722.50
2023-05-17T02:00:11.849Z,721.70
2023-05-17T02:02:45.068Z,718.53
2023-05-17T02:05:13.428Z,719.17
2023-05-17T02:07:41.405Z,724.83
2023-05-17T02:10:09.611Z,721.78
2023-05-17T02:12:42.429Z,727.58
2023-05-17T02:15:12.087Z,719.97
2023-05-17T02:17:40.794Z,722.47
2023-05-17T02:20:10.683Z,726.80
2023-05-17T02:22:38.265Z,725.45
2023-05-17T02:25:08.035Z,724.65
2023-05-17T02:27:36.756Z,725.53
2023-05-17T02:30:04.905Z,726.17
2023-05-17T02:32:33.299Z,726.05
2023-05-17T02:35:01.051Z,730.47
2023-05-17T02:37:29.098Z,732.40
2023-05-17T02:39:57.149Z,731.40
2023-05-17T02:42:24.703Z,730.42
2023-05-17T02:44:56.270Z,730.33
2023-05-17T02:47:24.336Z,729.42
2023-05-17T02:49:55.250Z,733.15
2023-05-17T02:52:22.898Z,731.72
2023-05-17T02:54:51.710Z,731.17
2023-05-17T02:57:19.552Z,728.50
2023-05-17T02:59:47.167Z,729.13
2023-05-17T03:02:15.937Z,733.03
2023-05-17T03:04:44.062Z,731.58
2023-05-17T03:07:11.755Z,728.55
2023-05-17T03:09:40.070Z,728.90
2023-05-17T03:12:08.953Z,727.40
2023-05-17T03:14:36.996Z,727.38
2023-05-17T03:17:05.206Z,724.38
2023-05-17T03:19:35.720Z,721.55
2023-05-17T03:22:04.361Z,720.90
2023-05-17T03:24:34.397Z,728.03
2023-05-17T03:27:02.318Z,731.40
2023-05-17T03:29:29.919Z,729.97
2023-05-17T03:31:57.619Z,726.83
2023-05-17T03:34:26.131Z,722.65
2023-05-17T03:36:54.221Z,720.38
2023-05-17T03:39:22.445Z,719.78
2023-05-17T03:41:51.416Z,716.70
2023-05-17T03:44:19.176Z,717.92
2023-05-17T03:46:47.808Z,723.53
2023-05-17T03:49:16.255Z,716.83
2023-05-17T03:51:45.120Z,722.78
2023-05-17T03:54:12.734Z,720.50
2023-05-17T03:56:40.354Z,721.40
2023-05-17T03:59:10.556Z,726.20
2023-05-17T04:01:38.853Z,726.83
2023-05-17T04:04:07.049Z,725.45
2023-05-17T04:06:35.392Z,729.83
2023-05-17T04:09:04.734Z,730.53
2023-05-17T04:11:33.242Z,732.75
2023-05-17T04:14:00.954Z,735.10
2023-05-17T04:16:28.907Z,735.72
2023-05-17T04:18:56.660Z,736.45
2023-05-17T04:21:24.285Z,728.30
2023-05-17T04:23:52.862Z,723.03
2023-05-17T04:26:20.718Z,727.10
2023-05-17T04:28:48.974Z,720.13
2023-05-17T04:31:18.044Z,713.17
2023-05-17T04:33:46.916Z,728.05
2023-05-17T04:36:14.970Z,725.40
2023-05-17T04:38:43.236Z,726.60
2023-05-17T04:41:13.873Z,730.63
2023-05-17T04:43:42.851Z,733.78
2023-05-17T04:46:18.788Z,733.15
2023-05-17T04:48:47.259Z,735.15
2023-05-17T04:51:15.912Z,736.58
2023-05-17T04:53:44.502Z,738.88
2023-05-17T04:56:16.610Z,739.80
2023-05-17T04:58:44.278Z,741.78
2023-05-17T05:01:13.060Z,734.17
2023-05-17T05:03:40.981Z,737.65
2023-05-17T05:06:11.565Z,740.97
2023-05-17T05:08:39.395Z,739.05
2023-05-17T05:11:11.556Z,745.53
2023-05-17T05:13:39.159Z,753.27
2023-05-17T05:16:08.275Z,759.50
2023-05-17T05:18:37.055Z,768.15
2023-05-17T05:21:05.486Z,771.63
2023-05-17T05:23:33.458Z,767.88
2023-05-17T05:26:01.496Z,777.17
2023-05-17T05:28:30.021Z,776.65
2023-05-17T05:30:59.711Z,789.43
2023-05-17T05:33:32.484Z,781.33
2023-05-17T05:36:00.498Z,795.53
2023-05-17T05:38:28.139Z,812.83
2023-05-17T05:40:56.400Z,786.60
2023-05-17T05:43:24.429Z,793.55
2023-05-17T05:45:52.082Z,800.47
2023-05-17T05:48:19.807Z,807.75
2023-05-17T05:50:47.905Z,824.88
2023-05-17T05:53:19.381Z,819.00
2023-05-17T05:55:53.264Z,823.50
2023-05-17T05:58:21.447Z,822.83
2023-05-17T06:00:49.894Z,820.47
2023-05-17T06:03:17.680Z,815.53
2023-05-17T06:05:45.427Z,809.05
2023-05-17T06:08:13.902Z,811.88
2023-05-17T06:10:41.983Z,810.17
2023-05-17T06:13:09.559Z,812.03
2023-05-17T06:15:37.556Z,813.10
2023-05-17T06:18:05.475Z,815.78
2023-05-17T06:20:33.088Z,807.97
2023-05-17T06:23:01.959Z,815.80
2023-05-17T06:25:29.602Z,818.78
2023-05-17T06:27:57.354Z,820.40
2023-05-17T06:30:25.142Z,824.50
2023-05-17T06:32:53.205Z,827.35
2023-05-17T06:35:21.369Z,831.45
2023-05-17T06:37:48.935Z,833.47
2023-05-17T06:40:17.297Z,835.03
2023-05-17T06:42:45.118Z,840.70
2023-05-17T06:45:13.989Z,836.67
2023-05-17T06:47:44.848Z,836.33
2023-05-17T06:50:12.817Z,838.22
2023-05-17T06:52:40.912Z,836.08
2023-05-17T06:55:09.325Z,841.70
2023-05-17T06:57:37.638Z,846.03
2023-05-17T07:00:11.236Z,805.13
2023-05-17T07:02:39.398Z,819.75
2023-05-17T07:05:07.482Z,834.47
2023-05-17T07:07:35.247Z,852.40
2023-05-17T07:10:03.890Z,843.03
2023-05-17T07:12:31.563Z,829.42
2023-05-17T07:14:59.588Z,835.45
2023-05-17T07:17:27.622Z,832.47
2023-05-17T07:19:56.096Z,854.30
2023-05-17T07:22:24.169Z,843.28
2023-05-17T07:24:52.264Z,878.00
2023-05-17T07:27:19.899Z,889.95
2023-05-17T07:29:47.559Z,883.20
2023-05-17T07:32:16.151Z,867.45
2023-05-17T07:34:44.008Z,848.58
2023-05-17T07:37:12.062Z,850.97
2023-05-17T07:39:40.216Z,849.15
2023-05-17T07:42:08.566Z,838.38
2023-05-17T07:44:36.088Z,823.45
2023-05-17T07:47:04.696Z,820.65
2023-05-17T07:49:32.802Z,828.88
2023-05-17T07:52:01.826Z,832.35
2023-05-17T07:54:31.140Z,840.70
2023-05-17T07:56:59.804Z,846.58
2023-05-17T07:59:27.726Z,859.97
2023-05-17T08:01:55.359Z,862.33
2023-05-17T08:04:24.383Z,910.53
2023-05-17T08:06:52.683Z,862.65
2023-05-17T08:09:20.222Z,929.42
2023-05-17T08:11:48.138Z,951.03
2023-05-17T08:14:16.788Z,948.67
2023-05-17T08:16:45.867Z,958.73
2023-05-17T08:19:14.985Z,958.65
2023-05-17T08:21:43.773Z,960.07
2023-05-17T08:24:11.881Z,967.17
2023-05-17T08:26:40.905Z,970.33
2023-05-17T08:29:08.444Z,972.67
2023-05-17T08:31:36.294Z,972.85
2023-05-17T08:34:04.160Z,967.60
2023-05-17T08:36:31.698Z,956.95
2023-05-17T08:38:59.265Z,946.47
2023-05-17T08:41:27.626Z,932.80
2023-05-17T08:43:56.940Z,938.80
2023-05-17T08:46:27.014Z,932.63
2023-05-17T08:49:00.154Z,939.83
2023-05-17T08:51:28.992Z,934.30
2023-05-17T08:53:56.807Z,940.90
2023-05-17T08:56:26.641Z,941.92
2023-05-17T08:58:59.300Z,937.63
2023-05-17T09:01:29.907Z,938.20
2023-05-17T09:04:00.450Z,942.73
2023-05-17T09:06:28.346Z,957.85
2023-05-17T09:08:58.511Z,960.30
2023-05-17T09:11:31.351Z,959.78
2023-05-17T09:14:01.093Z,954.65
2023-05-17T09:16:30.485Z,953.70
2023-05-17T09:18:59.416Z,952.53
2023-05-17T09:21:29.071Z,954.83
2023-05-17T09:24:06.112Z,950.03
2023-05-17T09:26:40.436Z,948.05
2023-05-17T09:29:13.213Z,946.88
2023-05-17T09:31:42.751Z,949.28
2023-05-17T09:34:10.950Z,959.28
2023-05-17T09:36:42.845Z,965.13
2023-05-17T09:39:13.181Z,965.10
2023-05-17T09:41:48.226Z,959.45
2023-05-17T09:44:16.604Z,955.33
2023-05-17T09:46:48.924Z,955.53
2023-05-17T09:49:17.797Z,960.95
2023-05-17T09:51:48.175Z,958.92
2023-05-17T09:54:17.684Z,964.00
2023-05-17T09:56:45.695Z,966.58
2023-05-17T09:59:15.044Z,983.30
2023-05-17T10:01:45.494Z,986.07
2023-05-17T10:04:13.975Z,997.30
2023-05-17T10:06:49.653Z,991.17
2023-05-17T10:09:21.736Z,991.72
2023-05-17T10:11:53.099Z,993.10
2023-05-17T10:14:29.048Z,993.15
2023-05-17T10:16:58.048Z,999.90
2023-05-17T10:19:26.803Z,999.90
2023-05-17T10:21:58.661Z,999.90
2023-05-17T10:24:32.991Z,999.90
2023-05-17T10:27:01.085Z,999.90
2023-05-17T10:29:34.982Z,999.90
2023-05-17T10:32:09.478Z,999.90
2023-05-17T10:34:39.252Z,999.90
2023-05-17T10:37:07.798Z,999.90
2023-05-17T10:39:38.667Z,999.90
2023-05-17T10:44:40.683Z,999.90
2023-05-17T10:47:08.999Z,999.90
2023-05-17T10:49:37.699Z,999.90
2023-05-17T10:52:20.154Z,999.90
2023-05-17T10:54:52.961Z,999.90
2023-05-17T10:57:39.095Z,999.90
2023-05-17T11:00:21.439Z,999.90
2023-05-17T11:02:50.781Z,999.90
2023-05-17T11:05:27.500Z,999.90
2023-05-17T11:08:17.613Z,999.90
2023-05-17T11:11:10.629Z,999.90
2023-05-17T11:13:54.950Z,999.90
2023-05-17T11:16:27.435Z,999.90
2023-05-17T11:18:57.624Z,999.90
2023-05-17T11:21:29.270Z,999.90
2023-05-17T11:24:02.274Z,999.90
2023-05-17T11:26:40.943Z,999.90
2023-05-17T11:29:10.667Z,999.90
2023-05-17T11:31:45.248Z,999.90
2023-05-17T11:34:13.098Z,999.90
2023-05-17T11:36:55.049Z,999.90
2023-05-17T11:39:23.879Z,999.90
2023-05-17T11:41:53.960Z,999.90
2023-05-17T11:44:29.571Z,999.90
2023-05-17T11:47:03.230Z,999.90
2023-05-17T11:49:35.791Z,999.90
2023-05-17T11:52:06.185Z,999.90
2023-05-17T11:54:35.230Z,999.90
2023-05-17T11:57:04.226Z,999.90
2023-05-17T11:59:39.838Z,999.90
2023-05-17T12:02:07.712Z,999.90
2023-05-17T12:04:37.947Z,999.90
2023-05-17T12:07:10.728Z,999.90
2023-05-17T12:09:40.363Z,999.90
2023-05-17T12:12:08.728Z,999.90
2023-05-17T12:14:37.078Z,999.90
2023-05-17T12:17:09.750Z,999.90
2023-05-17T12:19:37.685Z,999.90
2023-05-17T12:22:07.502Z,999.90
2023-05-17T12:24:39.799Z,999.90
2023-05-17T12:27:08.006Z,999.90
2023-05-17T12:29:35.864Z,999.90
2023-05-17T12:32:04.460Z,999.90
2023-05-17T12:34:32.720Z,999.90
2023-05-17T12:37:01.332Z,999.90
2023-05-17T12:39:31.748Z,999.90
2023-05-17T12:42:00.908Z,999.90
2023-05-17T12:44:28.598Z,999.90
2023-05-17T12:46:57.881Z,999.90
2023-05-17T12:49:25.880Z,999.90
2023-05-17T12:51:53.523Z,999.90
2023-05-17T12:54:24.063Z,999.90
2023-05-17T12:56:52.423Z,999.90
2023-05-17T12:59:28.849Z,999.90
2023-05-17T13:01:58.368Z,999.90
2023-05-17T13:04:31.939Z,999.90
2023-05-17T13:07:02.176Z,999.90
2023-05-17T13:09:31.315Z,999.90
2023-05-17T13:12:01.018Z,999.90
2023-05-17T13:14:36.592Z,999.90
2023-05-17T13:17:06.077Z,999.90
2023-05-17T13:19:36.149Z,999.90
2023-05-17T13:22:08.560Z,999.90
2023-05-17T13:24:38.232Z,999.90
2023-05-17T13:27:06.901Z,999.90
2023-05-17T13:29:40.262Z,999.90
2023-05-17T13:32:10.053Z,999.90
2023-05-17T13:34:41.109Z,999.90
2023-05-17T13:37:12.086Z,999.90
2023-05-17T13:39:41.916Z,999.90
2023-05-17T13:42:11.305Z,999.90
2023-05-17T13:44:40.037Z,999.90
2023-05-17T13:47:08.710Z,999.90
2023-05-17T13:49:37.384Z,999.90
2023-05-17T13:52:08.946Z,999.90
2023-05-17T13:54:37.217Z,999.90
2023-05-17T13:57:06.006Z,999.90
2023-05-17T13:59:33.938Z,999.90
2023-05-17T14:02:01.569Z,999.90
2023-05-17T14:04:29.641Z,999.90
2023-05-17T14:06:57.566Z,999.90
2023-05-17T14:09:25.458Z,999.90
2023-05-17T14:11:53.392Z,999.90
2023-05-17T14:14:21.377Z,999.90
2023-05-17T14:16:49.008Z,999.90
2023-05-17T14:19:17.057Z,999.90
2023-05-17T14:21:45.064Z,999.90
2023-05-17T14:24:12.977Z,999.90
2023-05-17T14:26:42.205Z,999.90
2023-05-17T14:29:09.768Z,999.90
2023-05-17T14:31:37.749Z,999.90
2023-05-17T14:34:05.277Z,999.90
2023-05-17T14:36:35.680Z,999.90
2023-05-17T14:39:03.894Z,999.90
2023-05-17T14:41:31.826Z,999.90
2023-05-17T14:43:59.470Z,999.90
2023-05-17T14:46:27.089Z,999.90
2023-05-17T14:48:56.735Z,999.90
2023-05-17T14:51:25.166Z,999.90
2023-05-17T14:53:54.293Z,999.90
2023-05-17T14:56:22.679Z,999.90
2023-05-17T14:58:51.203Z,999.90
2023-05-17T15:01:18.777Z,999.90
2023-05-17T15:03:46.901Z,999.90
2023-05-17T15:06:14.752Z,999.90
2023-05-17T15:08:42.425Z,999.90
2023-05-17T15:11:11.119Z,999.90
2023-05-17T15:13:38.769Z,999.90
2023-05-17T15:16:08.226Z,999.90
2023-05-17T15:18:37.935Z,999.90
2023-05-17T15:21:06.735Z,999.90
2023-05-17T15:23:34.343Z,999.90
2023-05-17T15:26:01.908Z,999.90
2023-05-17T15:28:29.480Z,999.90
2023-05-17T15:31:10.693Z,999.90
2023-05-17T15:33:43.352Z,999.90
2023-05-17T15:36:13.842Z,999.90
2023-05-17T15:38:42.254Z,999.90
2023-05-17T15:41:14.842Z,999.90
2023-05-17T15:43:44.323Z,999.90
2023-05-17T15:46:12.430Z,999.90
2023-05-17T15:48:40.050Z,999.90
2023-05-17T15:51:07.935Z,999.90
2023-05-17T15:53:35.507Z,999.90
2023-05-17T15:56:03.897Z,999.90
2023-05-17T15:58:34.360Z,999.90
2023-05-17T16:01:06.605Z,999.90
2023-05-17T16:03:34.839Z,999.90
2023-05-17T16:06:04.505Z,999.90
2023-05-17T16:08:32.741Z,999.90
2023-05-17T16:11:02.135Z,999.90
2023-05-17T16:13:30.950Z,999.90
2023-05-17T16:16:00.178Z,999.90
2023-05-17T16:18:28.397Z,999.90
2023-05-17T16:21:02.688Z,999.90
2023-05-17T16:23:30.691Z,999.90
2023-05-17T16:25:59.408Z,999.90
2023-05-17T16:28:34.656Z,999.90
2023-05-17T16:31:04.092Z,999.90
2023-05-17T16:33:32.357Z,999.90
2023-05-17T16:36:00.114Z,999.90
2023-05-17T16:38:28.096Z,999.90
2023-05-17T16:40:56.486Z,999.90
2023-05-17T16:43:24.144Z,999.90
2023-05-17T16:45:53.147Z,999.90
2023-05-17T16:48:21.334Z,999.90
2023-05-17T16:50:49.801Z,999.90
2023-05-17T16:53:18.002Z,999.90
2023-05-17T16:55:45.813Z,999.90
2023-05-17T16:58:14.148Z,999.90
2023-05-17T17:00:42.229Z,999.90
2023-05-17T17:03:10.240Z,999.90
2023-05-17T17:05:38.699Z,999.90
2023-05-17T17:08:06.858Z,999.90
2023-05-17T17:10:36.000Z,999.90
2023-05-17T17:13:05.153Z,999.90
2023-05-17T17:15:33.132Z,999.90
2023-05-17T17:18:01.169Z,999.90
2023-05-17T17:20:29.417Z,999.90
2023-05-17T17:22:57.995Z,999.90
2023-05-17T17:25:26.236Z,999.90
2023-05-17T17:27:54.112Z,999.90
2023-05-17T17:30:22.220Z,999.90
2023-05-17T17:32:50.783Z,998.65
2023-05-17T17:35:18.456Z,992.90
2023-05-17T17:37:46.161Z,994.50
2023-05-17T17:40:14.339Z,998.20
2023-05-17T17:42:41.944Z,996.53
2023-05-17T17:45:10.537Z,992.22
2023-05-17T17:47:38.171Z,979.40
2023-05-17T17:50:06.605Z,973.42
2023-05-17T17:52:34.181Z,966.63
2023-05-17T17:55:02.419Z,961.55
2023-05-17T17:57:32.076Z,945.58
2023-05-17T17:59:59.692Z,946.00
2023-05-17T18:02:27.815Z,938.20
2023-05-17T18:04:55.509Z,934.22
2023-05-17T18:07:23.731Z,934.13
2023-05-17T18:09:51.810Z,928.80
2023-05-17T18:12:20.882Z,922.60
2023-05-17T18:14:49.467Z,925.35
2023-05-17T18:17:17.065Z,922.93
2023-05-17T18:19:46.435Z,918.33
2023-05-17T18:22:18.936Z,917.20
2023-05-17T18:24:47.217Z,911.90
2023-05-17T18:27:15.132Z,913.70
2023-05-17T18:29:43.142Z,914.33
2023-05-17T18:32:10.839Z,909.38
2023-05-17T18:34:39.012Z,910.38
2023-05-17T18:37:06.984Z,910.35
2023-05-17T18:39:34.952Z,898.05
2023-05-17T18:42:04.093Z,902.50
2023-05-17T18:44:32.050Z,910.60
2023-05-17T18:47:00.101Z,901.65
2023-05-17T18:49:28.243Z,899.10
2023-05-17T18:51:56.229Z,900.23
2023-05-17T18:54:24.129Z,895.88
2023-05-17T18:56:52.522Z,893.33
2023-05-17T18:59:20.076Z,892.35
2023-05-17T19:01:48.117Z,887.97
2023-05-17T19:04:16.104Z,880.13
2023-05-17T19:06:44.732Z,882.13
2023-05-17T19:09:12.558Z,881.50
2023-05-17T19:11:40.224Z,879.42
2023-05-17T19:14:08.339Z,878.00
2023-05-17T19:16:36.115Z,883.13
2023-05-17T19:19:04.298Z,883.05
2023-05-17T19:21:32.031Z,883.53
2023-05-17T19:24:00.895Z,828.33
2023-05-17T19:26:29.260Z,852.15
2023-05-17T19:28:57.770Z,831.13
2023-05-17T19:31:25.334Z,874.13
2023-05-17T19:33:53.304Z,871.80
2023-05-17T19:36:21.698Z,872.40
2023-05-17T19:38:51.828Z,873.78
2023-05-17T19:41:20.384Z,873.50
2023-05-17T19:43:47.900Z,871.23
2023-05-17T19:46:16.050Z,875.08
2023-05-17T19:48:44.580Z,872.53
2023-05-17T19:51:12.346Z,868.45
2023-05-17T19:53:51.373Z,872.65
2023-05-17T19:56:19.872Z,874.05
2023-05-17T19:58:48.426Z,886.70
2023-05-17T20:01:16.101Z,881.47
2023-05-17T20:03:45.340Z,882.35
2023-05-17T20:06:14.992Z,886.73
2023-05-17T20:08:43.258Z,885.57
2023-05-17T20:11:11.242Z,882.72
2023-05-17T20:13:40.427Z,882.55
2023-05-17T20:16:13.017Z,881.22
2023-05-17T20:18:45.047Z,878.80
2023-05-17T20:21:19.884Z,876.53
2023-05-17T20:23:48.049Z,876.33
2023-05-17T20:26:25.678Z,874.63
2023-05-17T20:28:53.901Z,879.80
2023-05-17T20:31:22.256Z,883.20
2023-05-17T20:33:50.203Z,877.28
2023-05-17T20:36:18.758Z,874.40
2023-05-17T20:38:46.849Z,872.55
2023-05-17T20:41:16.028Z,871.75
2023-05-17T20:43:47.125Z,869.85
2023-05-17T20:46:16.078Z,866.23
2023-05-17T20:48:46.052Z,871.55
2023-05-17T20:51:14.308Z,869.20
2023-05-17T20:53:42.472Z,868.45
2023-05-17T20:56:10.912Z,865.17
2023-05-17T20:58:39.088Z,865.63
2023-05-17T21:01:08.123Z,865.17
2023-05-17T21:03:36.274Z,861.40
2023-05-17T21:06:05.433Z,865.08
2023-05-17T21:08:34.432Z,861.13
2023-05-17T21:11:02.508Z,860.92
2023-05-17T21:13:30.090Z,857.20
2023-05-17T21:15:57.677Z,862.33
2023-05-17T21:18:25.994Z,859.90
2023-05-17T21:20:55.471Z,862.60
2023-05-17T21:23:23.392Z,856.80
2023-05-17T21:25:51.096Z,857.08
2023-05-17T21:28:18.832Z,852.38
2023-05-17T21:30:46.521Z,850.47
2023-05-17T21:33:14.490Z,851.40
2023-05-17T21:35:42.591Z,854.47
2023-05-17T21:38:10.906Z,846.38
2023-05-17T21:40:39.170Z,849.58
2023-05-17T21:43:07.492Z,844.87
2023-05-17T21:45:35.893Z,843.78
2023-05-17T21:48:04.872Z,840.97
2023-05-17T21:50:32.645Z,833.80
2023-05-17T21:53:00.426Z,833.30
2023-05-17T21:55:36.591Z,831.10
2023-05-17T21:58:09.572Z,830.88
2023-05-17T22:00:37.933Z,827.80
2023-05-17T22:03:05.870Z,833.30
2023-05-17T22:05:33.976Z,833.20
2023-05-17T22:08:01.680Z,831.50
2023-05-17T22:10:30.591Z,829.08
2023-05-17T22:12:58.891Z,832.17
2023-05-17T22:15:26.436Z,831.72
2023-05-17T22:17:54.179Z,833.90
2023-05-17T22:20:23.884Z,827.97
2023-05-17T22:22:52.019Z,828.78
2023-05-17T22:25:19.617Z,826.65
2023-05-17T22:27:47.930Z,826.40
2023-05-17T22:30:16.177Z,822.70
2023-05-17T22:32:44.523Z,825.55
2023-05-17T22:35:12.895Z,819.80
2023-05-17T22:37:42.831Z,824.27
2023-05-17T22:40:11.091Z,820.25
2023-05-17T22:42:38.627Z,788.38
2023-05-17T22:45:07.153Z,820.67
2023-05-17T22:47:35.330Z,816.17
2023-05-17T22:50:03.743Z,818.33
2023-05-17T22:52:32.686Z,820.20
2023-05-17T22:55:01.519Z,824.25
2023-05-17T22:57:29.482Z,819.00
2023-05-17T22:59:57.589Z,825.35
2023-05-17T23:02:25.897Z,826.28
2023-05-17T23:04:53.959Z,824.57
2023-05-17T23:07:23.313Z,823.88
2023-05-17T23:09:51.310Z,827.40
2023-05-17T23:12:18.809Z,828.78
2023-05-17T23:14:47.611Z,828.88
2023-05-17T23:17:15.811Z,827.40
2023-05-17T23:19:43.467Z,830.85
2023-05-17T23:22:11.129Z,827.65
2023-05-17T23:24:39.488Z,822.22
2023-05-17T23:27:12.736Z,826.13
2023-05-17T23:29:41.819Z,820.80
2023-05-17T23:32:10.290Z,811.58
2023-05-17T23:34:37.875Z,818.90
2023-05-17T23:37:05.417Z,813.60
2023-05-17T23:39:32.971Z,812.65
2023-05-17T23:42:00.915Z,671.63
2023-05-17T23:44:28.984Z,662.25
2023-05-17T23:46:56.943Z,680.17
2023-05-17T23:49:25.097Z,682.78
2023-05-17T23:51:52.715Z,639.78
2023-05-17T23:54:21.277Z,668.50
2023-05-17T23:56:49.278Z,692.93
2023-05-17T23:59:17.085Z,702.17
